sensor_id;sensor_type;location;lat;lon;timestamp;P1;durP1;ratioP1;P2;durP2;ratioP2
71800;SDS011;59647;55.838;37.292;2023-09-19T00:02:16;9.98;;;4.30;;
71800;SDS011;59647;55.838;37.292;2023-09-19T00:04:43;7.38;;;4.45;;
71800;SDS011;59647;55.838;37.292;2023-09-19T00:07:09;8.00;;;4.28;;
71800;SDS011;59647;55.838;37.292;2023-09-19T00:09:35;10.80;;;5.47;;
71800;SDS011;59647;55.838;37.292;2023-09-19T00:12:04;10.30;;;5.47;;
71800;SDS011;59647;55.838;37.292;2023-09-19T00:14:31;12.43;;;5.60;;
71800;SDS011;59647;55.838;37.292;2023-09-19T00:17:01;11.82;;;4.85;;
71800;SDS011;59647;55.838;37.292;2023-09-19T00:19:34;8.00;;;4.32;;
71800;SDS011;59647;55.838;37.292;2023-09-19T00:22:00;10.25;;;5.15;;
71800;SDS011;59647;55.838;37.292;2023-09-19T00:24:26;10.85;;;5.68;;
71800;SDS011;59647;55.838;37.292;2023-09-19T00:26:56;10.32;;;4.78;;
71800;SDS011;59647;55.838;37.292;2023-09-19T00:29:24;10.88;;;6.00;;
71800;SDS011;59647;55.838;37.292;2023-09-19T00:31:55;11.05;;;5.72;;
71800;SDS011;59647;55.838;37.292;2023-09-19T00:34:22;12.50;;;6.40;;
71800;SDS011;59647;55.838;37.292;2023-09-19T00:36:50;12.48;;;5.50;;
71800;SDS011;59647;55.838;37.292;2023-09-19T00:39:19;8.98;;;4.90;;
71800;SDS011;59647;55.838;37.292;2023-09-19T00:41:46;16.85;;;8.55;;
71800;SDS011;59647;55.838;37.292;2023-09-19T00:44:11;20.25;;;8.15;;
71800;SDS011;59647;55.838;37.292;2023-09-19T00:46:37;17.80;;;7.53;;
71800;SDS011;59647;55.838;37.292;2023-09-19T00:49:03;13.75;;;7.35;;
71800;SDS011;59647;55.838;37.292;2023-09-19T00:51:29;18.27;;;8.70;;
71800;SDS011;59647;55.838;37.292;2023-09-19T00:53:55;16.35;;;7.35;;
71800;SDS011;59647;55.838;37.292;2023-09-19T00:56:21;19.52;;;7.93;;
71800;SDS011;59647;55.838;37.292;2023-09-19T00:58:48;13.20;;;7.38;;
71800;SDS011;59647;55.838;37.292;2023-09-19T01:01:14;16.10;;;7.95;;
71800;SDS011;59647;55.838;37.292;2023-09-19T01:03:41;18.23;;;7.85;;
71800;SDS011;59647;55.838;37.292;2023-09-19T01:06:07;16.83;;;8.73;;
71800;SDS011;59647;55.838;37.292;2023-09-19T01:08:38;15.85;;;8.13;;
71800;SDS011;59647;55.838;37.292;2023-09-19T01:13:53;16.30;;;7.95;;
71800;SDS011;59647;55.838;37.292;2023-09-19T01:16:28;18.27;;;8.88;;
71800;SDS011;59647;55.838;37.292;2023-09-19T01:21:48;17.67;;;7.55;;
71800;SDS011;59647;55.838;37.292;2023-09-19T01:25:04;15.68;;;7.72;;
71800;SDS011;59647;55.838;37.292;2023-09-19T01:29:46;17.35;;;6.82;;
71800;SDS011;59647;55.838;37.292;2023-09-19T01:32:19;15.02;;;7.85;;
71800;SDS011;59647;55.838;37.292;2023-09-19T01:34:51;17.92;;;10.02;;
71800;SDS011;59647;55.838;37.292;2023-09-19T01:37:23;14.48;;;7.43;;
71800;SDS011;59647;55.838;37.292;2023-09-19T01:40:03;16.33;;;8.90;;
71800;SDS011;59647;55.838;37.292;2023-09-19T01:42:39;19.55;;;9.52;;
71800;SDS011;59647;55.838;37.292;2023-09-19T01:47:49;22.88;;;8.93;;
71800;SDS011;59647;55.838;37.292;2023-09-19T01:53:22;19.20;;;9.43;;
71800;SDS011;59647;55.838;37.292;2023-09-19T01:55:53;21.20;;;9.77;;
71800;SDS011;59647;55.838;37.292;2023-09-19T01:58:21;21.73;;;9.80;;
71800;SDS011;59647;55.838;37.292;2023-09-19T02:00:58;17.38;;;9.05;;
71800;SDS011;59647;55.838;37.292;2023-09-19T02:03:26;14.27;;;8.30;;
71800;SDS011;59647;55.838;37.292;2023-09-19T02:05:54;18.10;;;9.65;;
71800;SDS011;59647;55.838;37.292;2023-09-19T02:08:21;23.63;;;9.05;;
71800;SDS011;59647;55.838;37.292;2023-09-19T02:10:51;20.02;;;9.45;;
71800;SDS011;59647;55.838;37.292;2023-09-19T02:13:20;19.52;;;9.60;;
71800;SDS011;59647;55.838;37.292;2023-09-19T02:15:47;18.15;;;9.10;;
71800;SDS011;59647;55.838;37.292;2023-09-19T02:18:13;30.92;;;10.88;;
71800;SDS011;59647;55.838;37.292;2023-09-19T02:20:41;18.88;;;9.43;;
71800;SDS011;59647;55.838;37.292;2023-09-19T02:23:09;18.95;;;9.93;;
71800;SDS011;59647;55.838;37.292;2023-09-19T02:25:35;20.02;;;9.63;;
71800;SDS011;59647;55.838;37.292;2023-09-19T02:28:01;16.13;;;9.02;;
71800;SDS011;59647;55.838;37.292;2023-09-19T02:30:29;21.77;;;9.68;;
71800;SDS011;59647;55.838;37.292;2023-09-19T02:32:55;22.13;;;9.65;;
71800;SDS011;59647;55.838;37.292;2023-09-19T02:35:21;18.30;;;9.15;;
71800;SDS011;59647;55.838;37.292;2023-09-19T02:37:48;20.77;;;10.85;;
71800;SDS011;59647;55.838;37.292;2023-09-19T02:40:15;16.23;;;8.90;;
71800;SDS011;59647;55.838;37.292;2023-09-19T02:42:48;21.10;;;9.18;;
71800;SDS011;59647;55.838;37.292;2023-09-19T02:45:19;18.08;;;9.48;;
71800;SDS011;59647;55.838;37.292;2023-09-19T02:47:46;18.48;;;8.70;;
71800;SDS011;59647;55.838;37.292;2023-09-19T02:50:13;17.45;;;9.10;;
71800;SDS011;59647;55.838;37.292;2023-09-19T02:52:42;17.67;;;9.52;;
71800;SDS011;59647;55.838;37.292;2023-09-19T02:55:10;22.98;;;9.95;;
71800;SDS011;59647;55.838;37.292;2023-09-19T02:57:40;20.75;;;9.38;;
71800;SDS011;59647;55.838;37.292;2023-09-19T03:00:09;17.48;;;9.25;;
71800;SDS011;59647;55.838;37.292;2023-09-19T03:02:36;20.45;;;9.43;;
71800;SDS011;59647;55.838;37.292;2023-09-19T03:05:04;18.38;;;8.95;;
71800;SDS011;59647;55.838;37.292;2023-09-19T03:07:31;20.33;;;10.18;;
71800;SDS011;59647;55.838;37.292;2023-09-19T03:09:57;20.88;;;9.85;;
71800;SDS011;59647;55.838;37.292;2023-09-19T03:12:24;32.63;;;8.80;;
71800;SDS011;59647;55.838;37.292;2023-09-19T03:14:49;20.58;;;8.55;;
71800;SDS011;59647;55.838;37.292;2023-09-19T03:17:17;19.15;;;8.70;;
71800;SDS011;59647;55.838;37.292;2023-09-19T03:19:46;21.33;;;8.57;;
71800;SDS011;59647;55.838;37.292;2023-09-19T03:22:14;21.05;;;8.77;;
71800;SDS011;59647;55.838;37.292;2023-09-19T03:24:40;18.55;;;8.55;;
71800;SDS011;59647;55.838;37.292;2023-09-19T03:27:09;17.50;;;9.07;;
71800;SDS011;59647;55.838;37.292;2023-09-19T03:29:36;19.63;;;9.57;;
71800;SDS011;59647;55.838;37.292;2023-09-19T03:32:05;20.25;;;9.85;;
71800;SDS011;59647;55.838;37.292;2023-09-19T03:34:32;21.95;;;8.63;;
71800;SDS011;59647;55.838;37.292;2023-09-19T03:36:59;18.63;;;8.95;;
71800;SDS011;59647;55.838;37.292;2023-09-19T03:39:26;17.83;;;8.50;;
71800;SDS011;59647;55.838;37.292;2023-09-19T03:41:52;20.75;;;9.98;;
71800;SDS011;59647;55.838;37.292;2023-09-19T03:44:19;20.92;;;9.88;;
71800;SDS011;59647;55.838;37.292;2023-09-19T03:46:45;19.98;;;9.07;;
71800;SDS011;59647;55.838;37.292;2023-09-19T03:49:11;20.90;;;9.30;;
71800;SDS011;59647;55.838;37.292;2023-09-19T03:51:38;27.75;;;10.45;;
71800;SDS011;59647;55.838;37.292;2023-09-19T03:54:07;14.55;;;8.75;;
71800;SDS011;59647;55.838;37.292;2023-09-19T03:56:33;17.58;;;7.70;;
71800;SDS011;59647;55.838;37.292;2023-09-19T03:59:00;19.20;;;9.88;;
71800;SDS011;59647;55.838;37.292;2023-09-19T04:01:26;19.73;;;8.63;;
71800;SDS011;59647;55.838;37.292;2023-09-19T04:03:54;17.20;;;8.90;;
71800;SDS011;59647;55.838;37.292;2023-09-19T04:06:20;16.92;;;8.80;;
71800;SDS011;59647;55.838;37.292;2023-09-19T04:08:46;17.67;;;8.88;;
71800;SDS011;59647;55.838;37.292;2023-09-19T04:11:12;20.67;;;10.85;;
71800;SDS011;59647;55.838;37.292;2023-09-19T04:13:40;21.48;;;9.70;;
71800;SDS011;59647;55.838;37.292;2023-09-19T04:16:06;20.58;;;9.65;;
71800;SDS011;59647;55.838;37.292;2023-09-19T04:18:35;21.13;;;9.50;;
71800;SDS011;59647;55.838;37.292;2023-09-19T04:21:05;21.02;;;10.95;;
71800;SDS011;59647;55.838;37.292;2023-09-19T04:23:32;22.83;;;10.30;;
71800;SDS011;59647;55.838;37.292;2023-09-19T04:25:58;22.55;;;10.50;;
71800;SDS011;59647;55.838;37.292;2023-09-19T04:28:25;23.02;;;9.88;;
71800;SDS011;59647;55.838;37.292;2023-09-19T04:30:53;20.52;;;10.15;;
71800;SDS011;59647;55.838;37.292;2023-09-19T04:33:25;22.92;;;11.27;;
71800;SDS011;59647;55.838;37.292;2023-09-19T04:35:53;24.13;;;10.70;;
71800;SDS011;59647;55.838;37.292;2023-09-19T04:38:20;24.75;;;11.88;;
71800;SDS011;59647;55.838;37.292;2023-09-19T04:40:46;21.98;;;10.68;;
71800;SDS011;59647;55.838;37.292;2023-09-19T04:43:13;27.35;;;9.98;;
71800;SDS011;59647;55.838;37.292;2023-09-19T04:45:42;27.77;;;13.98;;
71800;SDS011;59647;55.838;37.292;2023-09-19T04:48:08;29.80;;;13.40;;
71800;SDS011;59647;55.838;37.292;2023-09-19T04:50:34;24.30;;;11.85;;
71800;SDS011;59647;55.838;37.292;2023-09-19T04:53:00;25.00;;;13.35;;
71800;SDS011;59647;55.838;37.292;2023-09-19T04:55:26;26.25;;;13.93;;
71800;SDS011;59647;55.838;37.292;2023-09-19T04:57:53;26.17;;;12.68;;
71800;SDS011;59647;55.838;37.292;2023-09-19T05:00:21;24.02;;;14.02;;
71800;SDS011;59647;55.838;37.292;2023-09-19T05:02:56;29.25;;;15.02;;
71800;SDS011;59647;55.838;37.292;2023-09-19T05:05:23;32.40;;;16.33;;
71800;SDS011;59647;55.838;37.292;2023-09-19T05:07:51;31.95;;;17.33;;
71800;SDS011;59647;55.838;37.292;2023-09-19T05:10:19;35.17;;;17.35;;
71800;SDS011;59647;55.838;37.292;2023-09-19T05:12:46;33.85;;;18.23;;
71800;SDS011;59647;55.838;37.292;2023-09-19T05:15:14;37.10;;;18.00;;
71800;SDS011;59647;55.838;37.292;2023-09-19T05:17:47;34.45;;;17.50;;
71800;SDS011;59647;55.838;37.292;2023-09-19T05:20:17;33.58;;;18.58;;
71800;SDS011;59647;55.838;37.292;2023-09-19T05:23:01;38.42;;;19.17;;
71800;SDS011;59647;55.838;37.292;2023-09-19T05:25:29;39.45;;;18.08;;
71800;SDS011;59647;55.838;37.292;2023-09-19T05:27:57;44.53;;;18.95;;
71800;SDS011;59647;55.838;37.292;2023-09-19T05:30:28;33.95;;;17.75;;
71800;SDS011;59647;55.838;37.292;2023-09-19T05:32:55;36.28;;;17.17;;
71800;SDS011;59647;55.838;37.292;2023-09-19T05:35:22;38.72;;;19.15;;
71800;SDS011;59647;55.838;37.292;2023-09-19T05:37:53;29.88;;;15.05;;
71800;SDS011;59647;55.838;37.292;2023-09-19T05:40:20;39.97;;;18.63;;
71800;SDS011;59647;55.838;37.292;2023-09-19T05:42:46;34.38;;;17.23;;
71800;SDS011;59647;55.838;37.292;2023-09-19T05:45:13;34.10;;;16.98;;
71800;SDS011;59647;55.838;37.292;2023-09-19T05:47:44;32.65;;;17.25;;
71800;SDS011;59647;55.838;37.292;2023-09-19T05:50:11;33.20;;;17.95;;
71800;SDS011;59647;55.838;37.292;2023-09-19T05:52:38;59.58;;;29.80;;
71800;SDS011;59647;55.838;37.292;2023-09-19T05:55:04;34.35;;;16.35;;
71800;SDS011;59647;55.838;37.292;2023-09-19T05:57:35;36.38;;;17.65;;
71800;SDS011;59647;55.838;37.292;2023-09-19T06:00:03;37.25;;;17.83;;
71800;SDS011;59647;55.838;37.292;2023-09-19T06:02:38;34.75;;;17.58;;
71800;SDS011;59647;55.838;37.292;2023-09-19T06:05:06;31.00;;;16.30;;
71800;SDS011;59647;55.838;37.292;2023-09-19T06:07:36;34.30;;;16.52;;
71800;SDS011;59647;55.838;37.292;2023-09-19T06:10:03;30.02;;;16.08;;
71800;SDS011;59647;55.838;37.292;2023-09-19T06:12:37;28.30;;;13.98;;
71800;SDS011;59647;55.838;37.292;2023-09-19T06:15:11;31.23;;;16.35;;
71800;SDS011;59647;55.838;37.292;2023-09-19T06:17:50;32.85;;;15.52;;
71800;SDS011;59647;55.838;37.292;2023-09-19T06:20:20;29.67;;;14.85;;
71800;SDS011;59647;55.838;37.292;2023-09-19T06:22:49;33.17;;;15.43;;
71800;SDS011;59647;55.838;37.292;2023-09-19T06:25:16;31.63;;;16.02;;
71800;SDS011;59647;55.838;37.292;2023-09-19T06:27:48;34.78;;;16.02;;
71800;SDS011;59647;55.838;37.292;2023-09-19T06:30:18;31.83;;;15.30;;
71800;SDS011;59647;55.838;37.292;2023-09-19T06:32:47;33.97;;;15.00;;
71800;SDS011;59647;55.838;37.292;2023-09-19T06:35:14;26.58;;;14.30;;
71800;SDS011;59647;55.838;37.292;2023-09-19T06:37:41;32.63;;;15.13;;
71800;SDS011;59647;55.838;37.292;2023-09-19T06:40:10;28.90;;;14.82;;
71800;SDS011;59647;55.838;37.292;2023-09-19T06:42:44;29.60;;;13.88;;
71800;SDS011;59647;55.838;37.292;2023-09-19T06:45:11;29.63;;;14.75;;
71800;SDS011;59647;55.838;37.292;2023-09-19T06:47:43;28.33;;;15.40;;
71800;SDS011;59647;55.838;37.292;2023-09-19T06:50:10;28.73;;;15.50;;
71800;SDS011;59647;55.838;37.292;2023-09-19T06:52:40;34.08;;;15.15;;
71800;SDS011;59647;55.838;37.292;2023-09-19T06:55:07;31.40;;;15.18;;
71800;SDS011;59647;55.838;37.292;2023-09-19T06:57:35;31.80;;;14.25;;
71800;SDS011;59647;55.838;37.292;2023-09-19T07:00:02;30.50;;;13.73;;
71800;SDS011;59647;55.838;37.292;2023-09-19T07:02:34;25.48;;;14.88;;
71800;SDS011;59647;55.838;37.292;2023-09-19T07:05:00;25.15;;;13.13;;
71800;SDS011;59647;55.838;37.292;2023-09-19T07:07:29;24.13;;;14.65;;
71800;SDS011;59647;55.838;37.292;2023-09-19T07:09:55;28.05;;;14.07;;
71800;SDS011;59647;55.838;37.292;2023-09-19T07:12:22;36.50;;;14.55;;
71800;SDS011;59647;55.838;37.292;2023-09-19T07:14:48;30.17;;;14.45;;
71800;SDS011;59647;55.838;37.292;2023-09-19T07:17:16;30.85;;;14.85;;
71800;SDS011;59647;55.838;37.292;2023-09-19T07:19:44;27.58;;;14.00;;
71800;SDS011;59647;55.838;37.292;2023-09-19T07:22:10;28.20;;;14.13;;
71800;SDS011;59647;55.838;37.292;2023-09-19T07:24:37;31.63;;;13.30;;
71800;SDS011;59647;55.838;37.292;2023-09-19T07:27:04;33.00;;;13.45;;
71800;SDS011;59647;55.838;37.292;2023-09-19T07:29:31;25.60;;;13.65;;
71800;SDS011;59647;55.838;37.292;2023-09-19T07:31:57;30.30;;;13.18;;
71800;SDS011;59647;55.838;37.292;2023-09-19T07:34:23;40.03;;;15.98;;
71800;SDS011;59647;55.838;37.292;2023-09-19T07:36:49;36.65;;;15.57;;
71800;SDS011;59647;55.838;37.292;2023-09-19T07:39:17;40.05;;;15.27;;
71800;SDS011;59647;55.838;37.292;2023-09-19T07:41:44;25.58;;;13.38;;
71800;SDS011;59647;55.838;37.292;2023-09-19T07:44:11;30.95;;;14.38;;
71800;SDS011;59647;55.838;37.292;2023-09-19T07:46:37;33.15;;;13.25;;
71800;SDS011;59647;55.838;37.292;2023-09-19T07:49:09;32.72;;;12.77;;
71800;SDS011;59647;55.838;37.292;2023-09-19T07:51:36;27.75;;;13.82;;
71800;SDS011;59647;55.838;37.292;2023-09-19T07:54:04;26.67;;;14.75;;
71800;SDS011;59647;55.838;37.292;2023-09-19T07:56:30;48.38;;;15.50;;
71800;SDS011;59647;55.838;37.292;2023-09-19T07:58:59;33.28;;;14.15;;
71800;SDS011;59647;55.838;37.292;2023-09-19T08:01:29;35.58;;;14.60;;
71800;SDS011;59647;55.838;37.292;2023-09-19T08:03:55;26.42;;;12.80;;
71800;SDS011;59647;55.838;37.292;2023-09-19T08:06:25;29.08;;;13.55;;
71800;SDS011;59647;55.838;37.292;2023-09-19T08:08:55;27.65;;;13.57;;
71800;SDS011;59647;55.838;37.292;2023-09-19T08:11:23;27.95;;;13.82;;
71800;SDS011;59647;55.838;37.292;2023-09-19T08:13:50;26.75;;;14.20;;
71800;SDS011;59647;55.838;37.292;2023-09-19T08:16:17;28.15;;;14.30;;
71800;SDS011;59647;55.838;37.292;2023-09-19T08:18:48;36.97;;;13.68;;
71800;SDS011;59647;55.838;37.292;2023-09-19T08:21:19;33.42;;;13.02;;
71800;SDS011;59647;55.838;37.292;2023-09-19T08:23:46;32.95;;;14.32;;
71800;SDS011;59647;55.838;37.292;2023-09-19T08:26:12;26.23;;;14.30;;
71800;SDS011;59647;55.838;37.292;2023-09-19T08:28:39;25.15;;;12.95;;
71800;SDS011;59647;55.838;37.292;2023-09-19T08:31:07;44.80;;;14.93;;
71800;SDS011;59647;55.838;37.292;2023-09-19T08:33:35;27.58;;;13.50;;
71800;SDS011;59647;55.838;37.292;2023-09-19T08:36:02;32.63;;;13.55;;
71800;SDS011;59647;55.838;37.292;2023-09-19T08:38:33;33.15;;;13.75;;
71800;SDS011;59647;55.838;37.292;2023-09-19T08:41:01;36.80;;;15.50;;
71800;SDS011;59647;55.838;37.292;2023-09-19T08:43:31;35.35;;;13.98;;
71800;SDS011;59647;55.838;37.292;2023-09-19T08:46:09;31.83;;;13.43;;
71800;SDS011;59647;55.838;37.292;2023-09-19T08:55:11;32.53;;;14.30;;
71800;SDS011;59647;55.838;37.292;2023-09-19T08:57:38;38.30;;;13.68;;
71800;SDS011;59647;55.838;37.292;2023-09-19T09:00:10;32.40;;;15.20;;
71800;SDS011;59647;55.838;37.292;2023-09-19T09:02:41;27.42;;;13.65;;
71800;SDS011;59647;55.838;37.292;2023-09-19T09:05:09;26.77;;;14.10;;
71800;SDS011;59647;55.838;37.292;2023-09-19T09:07:42;36.13;;;14.35;;
71800;SDS011;59647;55.838;37.292;2023-09-19T09:10:10;29.52;;;14.35;;
71800;SDS011;59647;55.838;37.292;2023-09-19T09:12:36;27.15;;;14.18;;
71800;SDS011;59647;55.838;37.292;2023-09-19T09:15:06;39.50;;;15.07;;
71800;SDS011;59647;55.838;37.292;2023-09-19T09:17:34;20.92;;;11.68;;
71800;SDS011;59647;55.838;37.292;2023-09-19T09:20:01;24.95;;;14.63;;
71800;SDS011;59647;55.838;37.292;2023-09-19T09:22:30;31.73;;;14.10;;
71800;SDS011;59647;55.838;37.292;2023-09-19T09:24:57;31.25;;;14.48;;
71800;SDS011;59647;55.838;37.292;2023-09-19T09:27:24;24.75;;;13.73;;
71800;SDS011;59647;55.838;37.292;2023-09-19T09:29:51;39.35;;;14.32;;
71800;SDS011;59647;55.838;37.292;2023-09-19T09:32:21;33.10;;;14.07;;
71800;SDS011;59647;55.838;37.292;2023-09-19T09:37:20;29.75;;;13.77;;
71800;SDS011;59647;55.838;37.292;2023-09-19T09:39:58;27.77;;;14.23;;
71800;SDS011;59647;55.838;37.292;2023-09-19T09:42:45;33.22;;;15.05;;
71800;SDS011;59647;55.838;37.292;2023-09-19T09:45:24;34.25;;;14.63;;
71800;SDS011;59647;55.838;37.292;2023-09-19T09:48:00;27.60;;;12.80;;
71800;SDS011;59647;55.838;37.292;2023-09-19T09:50:47;54.35;;;17.60;;
71800;SDS011;59647;55.838;37.292;2023-09-19T09:53:27;27.10;;;14.68;;
71800;SDS011;59647;55.838;37.292;2023-09-19T09:58:35;28.98;;;14.20;;
71800;SDS011;59647;55.838;37.292;2023-09-19T10:01:03;27.40;;;13.70;;
71800;SDS011;59647;55.838;37.292;2023-09-19T10:03:42;25.85;;;13.25;;
71800;SDS011;59647;55.838;37.292;2023-09-19T10:06:13;27.30;;;15.40;;
71800;SDS011;59647;55.838;37.292;2023-09-19T10:11:46;36.67;;;13.52;;
71800;SDS011;59647;55.838;37.292;2023-09-19T10:14:24;37.58;;;13.98;;
71800;SDS011;59647;55.838;37.292;2023-09-19T10:16:56;38.55;;;16.45;;
71800;SDS011;59647;55.838;37.292;2023-09-19T10:19:30;27.10;;;14.00;;
71800;SDS011;59647;55.838;37.292;2023-09-19T10:22:02;22.77;;;13.85;;
71800;SDS011;59647;55.838;37.292;2023-09-19T10:24:33;37.35;;;14.68;;
71800;SDS011;59647;55.838;37.292;2023-09-19T10:27:02;39.80;;;15.23;;
71800;SDS011;59647;55.838;37.292;2023-09-19T10:29:29;38.65;;;15.57;;
71800;SDS011;59647;55.838;37.292;2023-09-19T10:32:01;29.48;;;14.13;;
71800;SDS011;59647;55.838;37.292;2023-09-19T10:34:35;38.72;;;15.65;;
71800;SDS011;59647;55.838;37.292;2023-09-19T10:37:02;35.20;;;14.27;;
71800;SDS011;59647;55.838;37.292;2023-09-19T10:39:31;35.15;;;15.85;;
71800;SDS011;59647;55.838;37.292;2023-09-19T10:42:02;45.90;;;17.10;;
71800;SDS011;59647;55.838;37.292;2023-09-19T10:44:32;35.30;;;14.35;;
71800;SDS011;59647;55.838;37.292;2023-09-19T10:46:58;33.97;;;14.27;;
71800;SDS011;59647;55.838;37.292;2023-09-19T10:49:25;33.83;;;14.20;;
71800;SDS011;59647;55.838;37.292;2023-09-19T10:51:52;29.70;;;14.73;;
71800;SDS011;59647;55.838;37.292;2023-09-19T10:54:25;29.55;;;13.65;;
71800;SDS011;59647;55.838;37.292;2023-09-19T10:56:53;29.92;;;14.20;;
71800;SDS011;59647;55.838;37.292;2023-09-19T10:59:20;27.60;;;14.52;;
71800;SDS011;59647;55.838;37.292;2023-09-19T11:04:21;36.30;;;13.23;;
71800;SDS011;59647;55.838;37.292;2023-09-19T11:09:54;27.38;;;12.85;;
71800;SDS011;59647;55.838;37.292;2023-09-19T11:15:07;28.40;;;13.75;;
71800;SDS011;59647;55.838;37.292;2023-09-19T11:17:36;27.13;;;13.15;;
71800;SDS011;59647;55.838;37.292;2023-09-19T11:33:15;21.23;;;12.32;;
71800;SDS011;59647;55.838;37.292;2023-09-19T11:43:48;22.58;;;12.57;;
71800;SDS011;59647;55.838;37.292;2023-09-19T11:46:20;39.60;;;14.07;;
71800;SDS011;59647;55.838;37.292;2023-09-19T11:48:48;26.08;;;11.75;;
71800;SDS011;59647;55.838;37.292;2023-09-19T11:51:19;22.55;;;10.48;;
71800;SDS011;59647;55.838;37.292;2023-09-19T11:53:53;35.00;;;13.52;;
71800;SDS011;59647;55.838;37.292;2023-09-19T11:56:25;29.10;;;13.18;;
71800;SDS011;59647;55.838;37.292;2023-09-19T11:58:57;25.27;;;11.82;;
71800;SDS011;59647;55.838;37.292;2023-09-19T12:01:29;34.05;;;12.85;;
71800;SDS011;59647;55.838;37.292;2023-09-19T12:03:58;24.45;;;12.57;;
71800;SDS011;59647;55.838;37.292;2023-09-19T12:06:26;23.10;;;12.68;;
71800;SDS011;59647;55.838;37.292;2023-09-19T12:08:54;19.75;;;12.30;;
71800;SDS011;59647;55.838;37.292;2023-09-19T12:11:28;24.20;;;12.35;;
71800;SDS011;59647;55.838;37.292;2023-09-19T12:13:59;31.15;;;12.82;;
71800;SDS011;59647;55.838;37.292;2023-09-19T12:16:29;25.60;;;13.05;;
71800;SDS011;59647;55.838;37.292;2023-09-19T12:18:56;23.73;;;12.82;;
71800;SDS011;59647;55.838;37.292;2023-09-19T12:21:24;26.15;;;12.57;;
71800;SDS011;59647;55.838;37.292;2023-09-19T12:24:11;27.35;;;11.88;;
71800;SDS011;59647;55.838;37.292;2023-09-19T12:26:39;23.48;;;12.00;;
71800;SDS011;59647;55.838;37.292;2023-09-19T12:29:14;21.70;;;11.13;;
71800;SDS011;59647;55.838;37.292;2023-09-19T12:31:48;27.00;;;12.05;;
71800;SDS011;59647;55.838;37.292;2023-09-19T12:34:24;26.48;;;12.05;;
71800;SDS011;59647;55.838;37.292;2023-09-19T12:37:04;33.85;;;11.65;;
71800;SDS011;59647;55.838;37.292;2023-09-19T12:42:07;32.15;;;10.80;;
71800;SDS011;59647;55.838;37.292;2023-09-19T12:44:38;29.25;;;12.85;;
71800;SDS011;59647;55.838;37.292;2023-09-19T12:47:09;21.48;;;11.13;;
71800;SDS011;59647;55.838;37.292;2023-09-19T12:49:41;32.30;;;11.85;;
71800;SDS011;59647;55.838;37.292;2023-09-19T12:52:36;21.90;;;10.68;;
71800;SDS011;59647;55.838;37.292;2023-09-19T12:55:04;26.90;;;11.82;;
71800;SDS011;59647;55.838;37.292;2023-09-19T12:57:33;22.50;;;10.68;;
71800;SDS011;59647;55.838;37.292;2023-09-19T13:00:00;20.75;;;11.32;;
71800;SDS011;59647;55.838;37.292;2023-09-19T13:02:31;23.63;;;12.23;;
71800;SDS011;59647;55.838;37.292;2023-09-19T13:04:58;25.65;;;11.27;;
71800;SDS011;59647;55.838;37.292;2023-09-19T13:07:39;32.50;;;10.80;;
71800;SDS011;59647;55.838;37.292;2023-09-19T13:10:09;28.25;;;10.63;;
71800;SDS011;59647;55.838;37.292;2023-09-19T13:12:36;25.45;;;10.98;;
71800;SDS011;59647;55.838;37.292;2023-09-19T13:15:11;27.27;;;10.48;;
71800;SDS011;59647;55.838;37.292;2023-09-19T13:17:43;24.98;;;10.05;;
71800;SDS011;59647;55.838;37.292;2023-09-19T13:20:20;24.90;;;9.88;;
71800;SDS011;59647;55.838;37.292;2023-09-19T13:22:53;23.20;;;9.05;;
71800;SDS011;59647;55.838;37.292;2023-09-19T13:25:25;16.98;;;8.52;;
71800;SDS011;59647;55.838;37.292;2023-09-19T13:27:54;16.98;;;8.00;;
71800;SDS011;59647;55.838;37.292;2023-09-19T13:30:24;27.88;;;8.65;;
71800;SDS011;59647;55.838;37.292;2023-09-19T13:33:08;15.93;;;7.28;;
71800;SDS011;59647;55.838;37.292;2023-09-19T13:35:35;20.15;;;7.80;;
71800;SDS011;59647;55.838;37.292;2023-09-19T13:38:08;12.55;;;5.63;;
71800;SDS011;59647;55.838;37.292;2023-09-19T13:40:40;11.07;;;5.78;;
71800;SDS011;59647;55.838;37.292;2023-09-19T13:43:10;14.45;;;6.53;;
71800;SDS011;59647;55.838;37.292;2023-09-19T13:45:37;15.38;;;4.57;;
71800;SDS011;59647;55.838;37.292;2023-09-19T13:48:04;12.13;;;4.97;;
71800;SDS011;59647;55.838;37.292;2023-09-19T13:50:32;8.95;;;4.47;;
71800;SDS011;59647;55.838;37.292;2023-09-19T13:52:59;12.38;;;4.95;;
71800;SDS011;59647;55.838;37.292;2023-09-19T13:55:25;12.10;;;4.55;;
71800;SDS011;59647;55.838;37.292;2023-09-19T13:57:53;6.00;;;3.90;;
71800;SDS011;59647;55.838;37.292;2023-09-19T14:00:21;9.82;;;4.90;;
71800;SDS011;59647;55.838;37.292;2023-09-19T14:02:48;8.15;;;4.32;;
71800;SDS011;59647;55.838;37.292;2023-09-19T14:05:17;8.02;;;4.55;;
71800;SDS011;59647;55.838;37.292;2023-09-19T14:07:44;7.43;;;4.15;;
71800;SDS011;59647;55.838;37.292;2023-09-19T14:10:13;8.38;;;4.72;;
71800;SDS011;59647;55.838;37.292;2023-09-19T14:12:40;12.00;;;4.93;;
71800;SDS011;59647;55.838;37.292;2023-09-19T14:15:09;9.88;;;4.30;;
71800;SDS011;59647;55.838;37.292;2023-09-19T14:17:35;14.23;;;5.13;;
71800;SDS011;59647;55.838;37.292;2023-09-19T14:20:04;10.60;;;4.85;;
71800;SDS011;59647;55.838;37.292;2023-09-19T14:22:32;31.52;;;5.60;;
71800;SDS011;59647;55.838;37.292;2023-09-19T14:24:58;18.88;;;6.32;;
71800;SDS011;59647;55.838;37.292;2023-09-19T14:27:26;18.08;;;5.80;;
71800;SDS011;59647;55.838;37.292;2023-09-19T14:29:52;12.38;;;6.65;;
71800;SDS011;59647;55.838;37.292;2023-09-19T14:32:20;16.02;;;7.22;;
71800;SDS011;59647;55.838;37.292;2023-09-19T14:34:46;11.35;;;6.47;;
71800;SDS011;59647;55.838;37.292;2023-09-19T14:37:19;13.35;;;7.03;;
71800;SDS011;59647;55.838;37.292;2023-09-19T14:39:49;11.45;;;6.38;;
71800;SDS011;59647;55.838;37.292;2023-09-19T14:42:15;11.75;;;6.03;;
71800;SDS011;59647;55.838;37.292;2023-09-19T14:44:43;13.07;;;6.85;;
71800;SDS011;59647;55.838;37.292;2023-09-19T14:47:10;8.70;;;5.80;;
71800;SDS011;59647;55.838;37.292;2023-09-19T14:49:39;15.32;;;5.68;;
71800;SDS011;59647;55.838;37.292;2023-09-19T14:52:09;11.20;;;5.93;;
71800;SDS011;59647;55.838;37.292;2023-09-19T14:54:38;15.63;;;5.72;;
71800;SDS011;59647;55.838;37.292;2023-09-19T14:57:06;11.32;;;5.78;;
71800;SDS011;59647;55.838;37.292;2023-09-19T14:59:34;12.55;;;4.60;;
71800;SDS011;59647;55.838;37.292;2023-09-19T15:02:05;12.40;;;5.50;;
71800;SDS011;59647;55.838;37.292;2023-09-19T15:04:32;14.43;;;6.03;;
71800;SDS011;59647;55.838;37.292;2023-09-19T15:06:59;11.63;;;5.00;;
71800;SDS011;59647;55.838;37.292;2023-09-19T15:09:25;10.40;;;5.90;;
71800;SDS011;59647;55.838;37.292;2023-09-19T15:11:52;16.77;;;6.15;;
71800;SDS011;59647;55.838;37.292;2023-09-19T15:14:19;10.75;;;5.60;;
71800;SDS011;59647;55.838;37.292;2023-09-19T15:16:46;15.20;;;5.93;;
71800;SDS011;59647;55.838;37.292;2023-09-19T15:19:14;16.20;;;6.80;;
71800;SDS011;59647;55.838;37.292;2023-09-19T15:21:42;17.05;;;6.50;;
71800;SDS011;59647;55.838;37.292;2023-09-19T15:24:08;18.35;;;6.50;;
71800;SDS011;59647;55.838;37.292;2023-09-19T15:26:36;15.52;;;6.05;;